sensor_id;sensor_type;location;lat;lon;timestamp;temperature;humidity
76470;DHT22;65305;52.870;13.660;2023-03-01T00:01:03;13.60;42.10
76470;DHT22;65305;52.870;13.660;2023-03-01T00:03:29;13.70;42.00
76470;DHT22;65305;52.870;13.660;2023-03-01T00:05:56;13.70;41.90
76470;DHT22;65305;52.870;13.660;2023-03-01T00:08:22;13.80;41.70
76470;DHT22;65305;52.870;13.660;2023-03-01T00:10:49;13.90;41.60
76470;DHT22;65305;52.870;13.660;2023-03-01T00:13:15;14.00;41.50
76470;DHT22;65305;52.870;13.660;2023-03-01T00:15:41;14.00;41.40
76470;DHT22;65305;52.870;13.660;2023-03-01T00:18:09;14.10;41.30
76470;DHT22;65305;52.870;13.660;2023-03-01T00:20:36;14.20;41.20
76470;DHT22;65305;52.870;13.660;2023-03-01T00:23:02;14.20;41.10
76470;DHT22;65305;52.870;13.660;2023-03-01T00:25:29;14.30;41.00
76470;DHT22;65305;52.870;13.660;2023-03-01T00:27:55;14.40;40.80
76470;DHT22;65305;52.870;13.660;2023-03-01T00:30:21;14.50;40.70
76470;DHT22;65305;52.870;13.660;2023-03-01T00:32:48;14.50;40.60
76470;DHT22;65305;52.870;13.660;2023-03-01T00:35:14;14.60;40.50
76470;DHT22;65305;52.870;13.660;2023-03-01T00:37:41;14.60;40.40
76470;DHT22;65305;52.870;13.660;2023-03-01T00:40:08;14.70;40.30
76470;DHT22;65305;52.870;13.660;2023-03-01T00:42:36;14.80;40.20
76470;DHT22;65305;52.870;13.660;2023-03-01T00:45:02;14.80;40.10
76470;DHT22;65305;52.870;13.660;2023-03-01T00:47:29;14.90;40.10
76470;DHT22;65305;52.870;13.660;2023-03-01T00:49:55;14.90;40.00
76470;DHT22;65305;52.870;13.660;2023-03-01T00:52:22;15.00;39.80
76470;DHT22;65305;52.870;13.660;2023-03-01T00:54:48;15.00;39.80
76470;DHT22;65305;52.870;13.660;2023-03-01T00:57:15;15.10;39.70
76470;DHT22;65305;52.870;13.660;2023-03-01T00:59:41;15.20;39.60
76470;DHT22;65305;52.870;13.660;2023-03-01T01:02:07;15.30;39.50
76470;DHT22;65305;52.870;13.660;2023-03-01T01:04:34;15.30;39.40
76470;DHT22;65305;52.870;13.660;2023-03-01T01:07:00;15.40;39.30
76470;DHT22;65305;52.870;13.660;2023-03-01T01:09:27;15.40;39.20
76470;DHT22;65305;52.870;13.660;2023-03-01T01:11:54;15.50;39.10
76470;DHT22;65305;52.870;13.660;2023-03-01T01:14:20;15.50;39.10
76470;DHT22;65305;52.870;13.660;2023-03-01T01:16:47;15.60;39.00
76470;DHT22;65305;52.870;13.660;2023-03-01T01:19:14;15.60;39.00
76470;DHT22;65305;52.870;13.660;2023-03-01T01:21:40;15.60;38.80
76470;DHT22;65305;52.870;13.660;2023-03-01T01:24:09;15.80;38.80
76470;DHT22;65305;52.870;13.660;2023-03-01T01:26:35;15.80;38.70
76470;DHT22;65305;52.870;13.660;2023-03-01T01:29:03;15.80;38.60
76470;DHT22;65305;52.870;13.660;2023-03-01T01:31:29;15.80;38.50
76470;DHT22;65305;52.870;13.660;2023-03-01T01:33:56;15.90;38.40
76470;DHT22;65305;52.870;13.660;2023-03-01T01:36:23;16.00;38.40
76470;DHT22;65305;52.870;13.660;2023-03-01T01:38:49;16.00;38.30
76470;DHT22;65305;52.870;13.660;2023-03-01T01:41:16;16.00;38.20
76470;DHT22;65305;52.870;13.660;2023-03-01T01:43:49;16.10;38.10
76470;DHT22;65305;52.870;13.660;2023-03-01T01:46:32;16.20;38.10
76470;DHT22;65305;52.870;13.660;2023-03-01T01:49:03;16.20;38.00
76470;DHT22;65305;52.870;13.660;2023-03-01T01:51:34;16.30;37.90
76470;DHT22;65305;52.870;13.660;2023-03-01T01:54:14;16.40;37.90
76470;DHT22;65305;52.870;13.660;2023-03-01T01:56:44;16.40;37.80
76470;DHT22;65305;52.870;13.660;2023-03-01T01:59:14;16.40;37.70
76470;DHT22;65305;52.870;13.660;2023-03-01T02:01:40;16.50;37.60
76470;DHT22;65305;52.870;13.660;2023-03-01T02:04:07;16.50;37.60
76470;DHT22;65305;52.870;13.660;2023-03-01T02:06:41;16.60;37.50
76470;DHT22;65305;52.870;13.660;2023-03-01T02:09:10;16.60;37.50
76470;DHT22;65305;52.870;13.660;2023-03-01T02:11:39;16.60;37.30
76470;DHT22;65305;52.870;13.660;2023-03-01T02:14:06;16.70;37.20
76470;DHT22;65305;52.870;13.660;2023-03-01T02:16:32;16.70;37.20
76470;DHT22;65305;52.870;13.660;2023-03-01T02:18:59;16.80;37.20
76470;DHT22;65305;52.870;13.660;2023-03-01T02:21:29;16.80;37.10
76470;DHT22;65305;52.870;13.660;2023-03-01T02:23:58;16.90;37.10
76470;DHT22;65305;52.870;13.660;2023-03-01T02:26:40;16.90;37.00
76470;DHT22;65305;52.870;13.660;2023-03-01T02:29:08;16.90;36.90
76470;DHT22;65305;52.870;13.660;2023-03-01T02:31:35;17.00;36.80
76470;DHT22;65305;52.870;13.660;2023-03-01T02:34:08;17.00;36.80
76470;DHT22;65305;52.870;13.660;2023-03-01T02:36:36;17.00;36.70
76470;DHT22;65305;52.870;13.660;2023-03-01T02:39:03;17.10;36.70
76470;DHT22;65305;52.870;13.660;2023-03-01T02:41:32;17.20;36.50
76470;DHT22;65305;52.870;13.660;2023-03-01T02:44:01;17.20;36.50
76470;DHT22;65305;52.870;13.660;2023-03-01T02:46:27;17.20;36.40
76470;DHT22;65305;52.870;13.660;2023-03-01T02:48:56;17.20;36.40
76470;DHT22;65305;52.870;13.660;2023-03-01T02:54:16;17.40;36.30
76470;DHT22;65305;52.870;13.660;2023-03-01T02:56:44;17.40;36.20
76470;DHT22;65305;52.870;13.660;2023-03-01T02:59:16;17.50;36.10
76470;DHT22;65305;52.870;13.660;2023-03-01T03:01:42;17.50;36.10
76470;DHT22;65305;52.870;13.660;2023-03-01T03:04:09;17.50;36.00
76470;DHT22;65305;52.870;13.660;2023-03-01T03:06:36;17.50;36.00
76470;DHT22;65305;52.870;13.660;2023-03-01T03:09:03;17.50;35.90
76470;DHT22;65305;52.870;13.660;2023-03-01T03:11:30;17.60;35.90
76470;DHT22;65305;52.870;13.660;2023-03-01T03:13:58;17.60;35.80
76470;DHT22;65305;52.870;13.660;2023-03-01T03:16:24;17.60;35.70
76470;DHT22;65305;52.870;13.660;2023-03-01T03:18:51;17.70;35.70
76470;DHT22;65305;52.870;13.660;2023-03-01T03:21:17;17.80;35.70
76470;DHT22;65305;52.870;13.660;2023-03-01T03:23:43;17.80;35.60
76470;DHT22;65305;52.870;13.660;2023-03-01T03:26:10;17.80;35.50
76470;DHT22;65305;52.870;13.660;2023-03-01T03:28:40;17.80;35.50
76470;DHT22;65305;52.870;13.660;2023-03-01T03:31:07;17.90;35.50
76470;DHT22;65305;52.870;13.660;2023-03-01T03:33:33;17.80;35.40
76470;DHT22;65305;52.870;13.660;2023-03-01T03:36:00;17.90;35.40
76470;DHT22;65305;52.870;13.660;2023-03-01T03:38:26;18.00;35.30
76470;DHT22;65305;52.870;13.660;2023-03-01T03:41:00;18.00;35.30
76470;DHT22;65305;52.870;13.660;2023-03-01T03:43:28;18.00;35.20
76470;DHT22;65305;52.870;13.660;2023-03-01T03:45:55;18.00;35.10
76470;DHT22;65305;52.870;13.660;2023-03-01T03:48:22;18.10;35.10
76470;DHT22;65305;52.870;13.660;2023-03-01T03:50:50;18.10;35.10
76470;DHT22;65305;52.870;13.660;2023-03-01T03:53:17;18.10;35.00
76470;DHT22;65305;52.870;13.660;2023-03-01T03:55:44;18.10;35.00
76470;DHT22;65305;52.870;13.660;2023-03-01T03:58:11;18.20;35.00
76470;DHT22;65305;52.870;13.660;2023-03-01T04:00:39;18.20;34.90
76470;DHT22;65305;52.870;13.660;2023-03-01T04:03:05;18.20;34.80
76470;DHT22;65305;52.870;13.660;2023-03-01T04:05:32;18.30;34.80
76470;DHT22;65305;52.870;13.660;2023-03-01T04:07:59;18.10;35.10
76470;DHT22;65305;52.870;13.660;2023-03-01T04:10:29;17.70;35.30
76470;DHT22;65305;52.870;13.660;2023-03-01T04:12:55;17.20;34.60
76470;DHT22;65305;52.870;13.660;2023-03-01T04:15:23;16.90;34.30
76470;DHT22;65305;52.870;13.660;2023-03-01T04:17:51;16.70;34.40
76470;DHT22;65305;52.870;13.660;2023-03-01T04:20:18;16.40;34.50
76470;DHT22;65305;52.870;13.660;2023-03-01T04:22:58;16.20;34.70
76470;DHT22;65305;52.870;13.660;2023-03-01T04:25:25;16.00;34.80
76470;DHT22;65305;52.870;13.660;2023-03-01T04:27:51;15.80;35.00
76470;DHT22;65305;52.870;13.660;2023-03-01T04:30:19;15.60;35.10
76470;DHT22;65305;52.870;13.660;2023-03-01T04:32:45;15.40;35.30
76470;DHT22;65305;52.870;13.660;2023-03-01T04:35:12;15.30;35.50
76470;DHT22;65305;52.870;13.660;2023-03-01T04:37:38;15.20;35.70
76470;DHT22;65305;52.870;13.660;2023-03-01T04:40:05;15.00;35.80
76470;DHT22;65305;52.870;13.660;2023-03-01T04:42:39;14.90;36.00
76470;DHT22;65305;52.870;13.660;2023-03-01T04:45:05;14.70;36.10
76470;DHT22;65305;52.870;13.660;2023-03-01T04:47:40;14.60;36.20
76470;DHT22;65305;52.870;13.660;2023-03-01T04:50:06;14.50;36.40
76470;DHT22;65305;52.870;13.660;2023-03-01T04:52:33;14.40;36.50
76470;DHT22;65305;52.870;13.660;2023-03-01T04:55:00;14.30;36.70
76470;DHT22;65305;52.870;13.660;2023-03-01T04:57:26;14.20;36.90
76470;DHT22;65305;52.870;13.660;2023-03-01T04:59:55;14.10;37.00
76470;DHT22;65305;52.870;13.660;2023-03-01T05:02:21;14.00;37.10
76470;DHT22;65305;52.870;13.660;2023-03-01T05:04:48;13.90;37.20
76470;DHT22;65305;52.870;13.660;2023-03-01T05:07:14;13.80;37.30
76470;DHT22;65305;52.870;13.660;2023-03-01T05:09:46;13.70;37.50
76470;DHT22;65305;52.870;13.660;2023-03-01T05:12:12;13.60;37.60
76470;DHT22;65305;52.870;13.660;2023-03-01T05:14:39;13.50;37.70
76470;DHT22;65305;52.870;13.660;2023-03-01T05:17:06;13.50;37.90
76470;DHT22;65305;52.870;13.660;2023-03-01T05:19:32;13.30;38.00
76470;DHT22;65305;52.870;13.660;2023-03-01T05:21:59;13.30;38.00
76470;DHT22;65305;52.870;13.660;2023-03-01T05:24:32;13.20;38.20
76470;DHT22;65305;52.870;13.660;2023-03-01T05:26:59;13.10;38.30
76470;DHT22;65305;52.870;13.660;2023-03-01T05:29:26;13.00;38.40
76470;DHT22;65305;52.870;13.660;2023-03-01T05:31:57;13.00;38.50
76470;DHT22;65305;52.870;13.660;2023-03-01T05:34:24;12.90;38.60
76470;DHT22;65305;52.870;13.660;2023-03-01T05:36:52;12.80;38.70
76470;DHT22;65305;52.870;13.660;2023-03-01T05:39:21;12.70;38.80
76470;DHT22;65305;52.870;13.660;2023-03-01T05:41:51;12.60;38.90
76470;DHT22;65305;52.870;13.660;2023-03-01T05:44:18;12.50;39.00
76470;DHT22;65305;52.870;13.660;2023-03-01T05:46:45;12.50;39.10
76470;DHT22;65305;52.870;13.660;2023-03-01T05:49:12;12.50;39.20
76470;DHT22;65305;52.870;13.660;2023-03-01T05:51:42;12.40;39.30
76470;DHT22;65305;52.870;13.660;2023-03-01T05:54:09;12.30;39.50
76470;DHT22;65305;52.870;13.660;2023-03-01T05:56:35;12.20;39.50
76470;DHT22;65305;52.870;13.660;2023-03-01T05:59:02;12.20;39.70
76470;DHT22;65305;52.870;13.660;2023-03-01T06:01:29;12.10;39.70
76470;DHT22;65305;52.870;13.660;2023-03-01T06:03:56;12.00;39.80
76470;DHT22;65305;52.870;13.660;2023-03-01T06:06:23;12.00;39.90
76470;DHT22;65305;52.870;13.660;2023-03-01T06:08:50;11.90;40.00
76470;DHT22;65305;52.870;13.660;2023-03-01T06:11:16;11.90;40.10
76470;DHT22;65305;52.870;13.660;2023-03-01T06:13:43;11.80;40.20
76470;DHT22;65305;52.870;13.660;2023-03-01T06:16:09;11.70;40.30
76470;DHT22;65305;52.870;13.660;2023-03-01T06:18:37;11.70;40.40
76470;DHT22;65305;52.870;13.660;2023-03-01T06:21:03;11.60;40.50
76470;DHT22;65305;52.870;13.660;2023-03-01T06:23:30;11.50;40.60
76470;DHT22;65305;52.870;13.660;2023-03-01T06:25:57;11.50;40.60
76470;DHT22;65305;52.870;13.660;2023-03-01T06:28:23;11.50;40.70
76470;DHT22;65305;52.870;13.660;2023-03-01T06:30:50;11.40;40.80
76470;DHT22;65305;52.870;13.660;2023-03-01T06:33:17;11.40;40.90
76470;DHT22;65305;52.870;13.660;2023-03-01T06:35:46;11.30;41.00
76470;DHT22;65305;52.870;13.660;2023-03-01T06:38:12;11.20;41.00
76470;DHT22;65305;52.870;13.660;2023-03-01T06:40:40;11.10;41.10
76470;DHT22;65305;52.870;13.660;2023-03-01T06:43:07;11.10;41.20
76470;DHT22;65305;52.870;13.660;2023-03-01T06:45:33;11.10;41.30
76470;DHT22;65305;52.870;13.660;2023-03-01T06:48:04;11.00;41.30
76470;DHT22;65305;52.870;13.660;2023-03-01T06:50:30;11.00;41.40
76470;DHT22;65305;52.870;13.660;2023-03-01T06:52:57;10.90;41.50
76470;DHT22;65305;52.870;13.660;2023-03-01T06:55:24;10.90;41.60
76470;DHT22;65305;52.870;13.660;2023-03-01T06:57:57;10.80;41.60
76470;DHT22;65305;52.870;13.660;2023-03-01T07:00:23;10.80;41.70
76470;DHT22;65305;52.870;13.660;2023-03-01T07:02:50;10.70;41.80
76470;DHT22;65305;52.870;13.660;2023-03-01T07:05:17;10.70;41.90
76470;DHT22;65305;52.870;13.660;2023-03-01T07:07:43;10.60;41.90
76470;DHT22;65305;52.870;13.660;2023-03-01T07:10:10;10.60;42.00
76470;DHT22;65305;52.870;13.660;2023-03-01T07:12:37;10.50;42.00
76470;DHT22;65305;52.870;13.660;2023-03-01T07:15:04;10.50;42.10
76470;DHT22;65305;52.870;13.660;2023-03-01T07:17:31;10.40;42.10
76470;DHT22;65305;52.870;13.660;2023-03-01T07:19:57;10.40;42.20
76470;DHT22;65305;52.870;13.660;2023-03-01T07:22:24;10.40;42.30
76470;DHT22;65305;52.870;13.660;2023-03-01T07:24:50;10.30;42.30
76470;DHT22;65305;52.870;13.660;2023-03-01T07:27:16;10.30;42.30
76470;DHT22;65305;52.870;13.660;2023-03-01T07:29:43;10.20;42.40
76470;DHT22;65305;52.870;13.660;2023-03-01T07:32:09;10.20;42.50
76470;DHT22;65305;52.870;13.660;2023-03-01T07:34:36;10.10;42.50
76470;DHT22;65305;52.870;13.660;2023-03-01T07:37:03;10.10;42.60
76470;DHT22;65305;52.870;13.660;2023-03-01T07:39:29;10.00;42.60
76470;DHT22;65305;52.870;13.660;2023-03-01T07:41:56;10.00;42.70
76470;DHT22;65305;52.870;13.660;2023-03-01T07:44:22;10.00;42.80
76470;DHT22;65305;52.870;13.660;2023-03-01T07:46:49;10.00;42.90
76470;DHT22;65305;52.870;13.660;2023-03-01T07:49:15;9.90;42.90
76470;DHT22;65305;52.870;13.660;2023-03-01T07:51:42;9.80;43.00
76470;DHT22;65305;52.870;13.660;2023-03-01T07:54:09;9.80;43.00
76470;DHT22;65305;52.870;13.660;2023-03-01T07:56:36;9.80;43.10
76470;DHT22;65305;52.870;13.660;2023-03-01T07:59:02;9.70;43.20
76470;DHT22;65305;52.870;13.660;2023-03-01T08:01:29;9.70;43.20
76470;DHT22;65305;52.870;13.660;2023-03-01T08:03:55;9.60;43.20
76470;DHT22;65305;52.870;13.660;2023-03-01T08:06:21;9.60;43.30
76470;DHT22;65305;52.870;13.660;2023-03-01T08:08:48;9.60;43.30
76470;DHT22;65305;52.870;13.660;2023-03-01T08:11:14;9.50;43.40
76470;DHT22;65305;52.870;13.660;2023-03-01T08:13:41;9.50;43.40
76470;DHT22;65305;52.870;13.660;2023-03-01T08:16:12;9.50;43.50
76470;DHT22;65305;52.870;13.660;2023-03-01T08:18:39;9.40;43.50
76470;DHT22;65305;52.870;13.660;2023-03-01T08:21:09;9.40;43.60
76470;DHT22;65305;52.870;13.660;2023-03-01T08:23:36;9.40;43.60
76470;DHT22;65305;52.870;13.660;2023-03-01T08:26:13;9.40;43.60
76470;DHT22;65305;52.870;13.660;2023-03-01T08:28:40;9.30;43.70
76470;DHT22;65305;52.870;13.660;2023-03-01T08:31:14;9.20;43.70
76470;DHT22;65305;52.870;13.660;2023-03-01T08:33:40;9.20;43.80
76470;DHT22;65305;52.870;13.660;2023-03-01T08:36:07;9.20;43.80
76470;DHT22;65305;52.870;13.660;2023-03-01T08:38:34;9.20;43.80
76470;DHT22;65305;52.870;13.660;2023-03-01T08:41:00;9.20;43.90
76470;DHT22;65305;52.870;13.660;2023-03-01T08:43:27;9.10;43.90
76470;DHT22;65305;52.870;13.660;2023-03-01T08:45:54;9.00;44.00
76470;DHT22;65305;52.870;13.660;2023-03-01T08:48:20;9.00;44.00
76470;DHT22;65305;52.870;13.660;2023-03-01T08:50:46;9.00;44.10
76470;DHT22;65305;52.870;13.660;2023-03-01T08:53:13;9.00;44.10
76470;DHT22;65305;52.870;13.660;2023-03-01T08:55:39;9.00;44.20
76470;DHT22;65305;52.870;13.660;2023-03-01T08:58:05;8.90;44.20
76470;DHT22;65305;52.870;13.660;2023-03-01T09:00:32;8.90;44.30
76470;DHT22;65305;52.870;13.660;2023-03-01T09:03:01;8.90;44.30
76470;DHT22;65305;52.870;13.660;2023-03-01T09:05:27;8.80;44.40
76470;DHT22;65305;52.870;13.660;2023-03-01T09:07:54;8.80;44.40
76470;DHT22;65305;52.870;13.660;2023-03-01T09:10:24;8.80;44.50
76470;DHT22;65305;52.870;13.660;2023-03-01T09:12:51;8.70;44.50
76470;DHT22;65305;52.870;13.660;2023-03-01T09:15:18;8.70;44.50
76470;DHT22;65305;52.870;13.660;2023-03-01T09:17:44;8.60;44.60
76470;DHT22;65305;52.870;13.660;2023-03-01T09:20:10;8.60;44.60
76470;DHT22;65305;52.870;13.660;2023-03-01T09:22:37;8.60;44.60
76470;DHT22;65305;52.870;13.660;2023-03-01T09:25:03;8.60;44.70
76470;DHT22;65305;52.870;13.660;2023-03-01T09:27:30;8.60;44.70
76470;DHT22;65305;52.870;13.660;2023-03-01T09:29:56;8.60;44.80
76470;DHT22;65305;52.870;13.660;2023-03-01T09:32:23;8.50;44.80
76470;DHT22;65305;52.870;13.660;2023-03-01T09:34:49;8.50;44.90
76470;DHT22;65305;52.870;13.660;2023-03-01T09:37:32;8.50;44.90
76470;DHT22;65305;52.870;13.660;2023-03-01T09:39:58;8.40;44.90
76470;DHT22;65305;52.870;13.660;2023-03-01T09:42:25;8.40;45.00
76470;DHT22;65305;52.870;13.660;2023-03-01T09:44:59;8.40;45.00
76470;DHT22;65305;52.870;13.660;2023-03-01T09:47:29;8.40;45.00
76470;DHT22;65305;52.870;13.660;2023-03-01T09:52:28;8.30;45.10
76470;DHT22;65305;52.870;13.660;2023-03-01T09:54:55;8.30;45.20
76470;DHT22;65305;52.870;13.660;2023-03-01T09:57:35;8.30;45.20
76470;DHT22;65305;52.870;13.660;2023-03-01T10:02:43;8.20;45.30
76470;DHT22;65305;52.870;13.660;2023-03-01T10:08:19;8.20;45.40
76470;DHT22;65305;52.870;13.660;2023-03-01T10:10:50;8.10;45.40
76470;DHT22;65305;52.870;13.660;2023-03-01T10:14:05;8.10;45.50
76470;DHT22;65305;52.870;13.660;2023-03-01T10:16:10;8.10;45.50
76470;DHT22;65305;52.870;13.660;2023-03-01T10:18:38;8.10;45.60
76470;DHT22;65305;52.870;13.660;2023-03-01T10:21:17;8.00;45.70
76470;DHT22;65305;52.870;13.660;2023-03-01T10:23:44;8.00;45.70
76470;DHT22;65305;52.870;13.660;2023-03-01T10:26:34;8.00;45.70
76470;DHT22;65305;52.870;13.660;2023-03-01T10:29:05;8.00;45.70
76470;DHT22;65305;52.870;13.660;2023-03-01T10:31:52;8.00;45.80
76470;DHT22;65305;52.870;13.660;2023-03-01T10:34:29;8.00;45.80
76470;DHT22;65305;52.870;13.660;2023-03-01T10:36:59;7.90;45.90
76470;DHT22;65305;52.870;13.660;2023-03-01T10:39:28;7.90;45.90
76470;DHT22;65305;52.870;13.660;2023-03-01T10:41:56;7.90;45.90
76470;DHT22;65305;52.870;13.660;2023-03-01T10:44:43;7.80;46.00
76470;DHT22;65305;52.870;13.660;2023-03-01T10:47:15;7.80;46.00
76470;DHT22;65305;52.870;13.660;2023-03-01T10:49:51;7.80;46.00
76470;DHT22;65305;52.870;13.660;2023-03-01T10:52:19;7.80;46.10
76470;DHT22;65305;52.870;13.660;2023-03-01T10:54:56;7.80;46.10
76470;DHT22;65305;52.870;13.660;2023-03-01T10:57:34;7.80;46.10
76470;DHT22;65305;52.870;13.660;2023-03-01T11:00:16;7.80;46.20
76470;DHT22;65305;52.870;13.660;2023-03-01T11:03:10;7.70;46.20
76470;DHT22;65305;52.870;13.660;2023-03-01T11:05:34;7.70;46.30
76470;DHT22;65305;52.870;13.660;2023-03-01T11:08:01;7.60;46.40
76470;DHT22;65305;52.870;13.660;2023-03-01T11:10:33;7.60;46.40
76470;DHT22;65305;52.870;13.660;2023-03-01T11:16:05;7.60;46.40
76470;DHT22;65305;52.870;13.660;2023-03-01T11:18:32;7.60;46.50
76470;DHT22;65305;52.870;13.660;2023-03-01T11:20:59;7.50;46.50
76470;DHT22;65305;52.870;13.660;2023-03-01T11:23:28;7.50;46.50
76470;DHT22;65305;52.870;13.660;2023-03-01T11:25:55;7.50;46.60
76470;DHT22;65305;52.870;13.660;2023-03-01T11:28:22;7.50;46.60
76470;DHT22;65305;52.870;13.660;2023-03-01T11:36:08;7.50;46.60
76470;DHT22;65305;52.870;13.660;2023-03-01T11:38:40;7.50;46.80
76470;DHT22;65305;52.870;13.660;2023-03-01T11:41:07;7.40;46.80
76470;DHT22;65305;52.870;13.660;2023-03-01T11:46:11;7.40;46.90
76470;DHT22;65305;52.870;13.660;2023-03-01T11:48:49;7.40;46.90
76470;DHT22;65305;52.870;13.660;2023-03-01T11:51:23;7.40;47.00
76470;DHT22;65305;52.870;13.660;2023-03-01T11:54:01;7.40;46.90
76470;DHT22;65305;52.870;13.660;2023-03-01T11:56:35;7.30;47.00
76470;DHT22;65305;52.870;13.660;2023-03-01T12:07:10;7.20;47.20
76470;DHT22;65305;52.870;13.660;2023-03-01T12:14:56;7.20;47.20
76470;DHT22;65305;52.870;13.660;2023-03-01T12:30:44;7.10;47.40
76470;DHT22;65305;52.870;13.660;2023-03-01T12:35:52;7.00;47.40
76470;DHT22;65305;52.870;13.660;2023-03-01T12:46:04;7.00;47.60
76470;DHT22;65305;52.870;13.660;2023-03-01T12:48:39;7.00;47.50
76470;DHT22;65305;52.870;13.660;2023-03-01T12:51:11;7.00;47.60
76470;DHT22;65305;52.870;13.660;2023-03-01T12:53:50;7.00;47.60
76470;DHT22;65305;52.870;13.660;2023-03-01T12:56:18;7.00;47.70
76470;DHT22;65305;52.870;13.660;2023-03-01T13:01:21;6.90;47.60
76470;DHT22;65305;52.870;13.660;2023-03-01T13:06:29;6.90;47.70
76470;DHT22;65305;52.870;13.660;2023-03-01T13:11:33;6.90;47.70
76470;DHT22;65305;52.870;13.660;2023-03-01T13:16:45;6.90;47.70
76470;DHT22;65305;52.870;13.660;2023-03-01T13:19:24;6.90;47.80
76470;DHT22;65305;52.870;13.660;2023-03-01T13:21:51;6.80;47.80
76470;DHT22;65305;52.870;13.660;2023-03-01T13:29:53;6.80;47.90
76470;DHT22;65305;52.870;13.660;2023-03-01T13:32:28;6.80;47.90
76470;DHT22;65305;52.870;13.660;2023-03-01T13:34:57;6.80;48.00
76470;DHT22;65305;52.870;13.660;2023-03-01T13:37:25;6.80;48.00
76470;DHT22;65305;52.870;13.660;2023-03-01T13:39:52;6.80;48.00
76470;DHT22;65305;52.870;13.660;2023-03-01T13:42:32;6.80;48.10
76470;DHT22;65305;52.870;13.660;2023-03-01T13:44:59;6.70;48.10
76470;DHT22;65305;52.870;13.660;2023-03-01T13:47:26;6.70;48.10
76470;DHT22;65305;52.870;13.660;2023-03-01T13:49:57;6.70;48.20
76470;DHT22;65305;52.870;13.660;2023-03-01T13:52:37;6.70;48.20
76470;DHT22;65305;52.870;13.660;2023-03-01T13:55:14;6.70;48.20
76470;DHT22;65305;52.870;13.660;2023-03-01T13:57:47;6.70;48.30
76470;DHT22;65305;52.870;13.660;2023-03-01T14:00:40;6.70;48.30
76470;DHT22;65305;52.870;13.660;2023-03-01T14:03:10;6.60;48.40
76470;DHT22;65305;52.870;13.660;2023-03-01T14:05:38;6.60;48.40
76470;DHT22;65305;52.870;13.660;2023-03-01T14:08:04;6.60;48.40
76470;DHT22;65305;52.870;13.660;2023-03-01T14:10:44;6.60;48.50
76470;DHT22;65305;52.870;13.660;2023-03-01T14:16:05;6.60;48.60
76470;DHT22;65305;52.870;13.660;2023-03-01T14:21:08;6.60;48.60
76470;DHT22;65305;52.870;13.660;2023-03-01T14:23:35;6.60;48.60
76470;DHT22;65305;52.870;13.660;2023-03-01T14:26:07;6.60;48.60
76470;DHT22;65305;52.870;13.660;2023-03-01T14:28:34;6.60;48.60
76470;DHT22;65305;52.870;13.660;2023-03-01T14:31:30;6.50;48.70
76470;DHT22;65305;52.870;13.660;2023-03-01T14:33:55;6.50;48.70
76470;DHT22;65305;52.870;13.660;2023-03-01T14:36:25;6.50;48.80
76470;DHT22;65305;52.870;13.660;2023-03-01T14:38:52;6.50;48.70
76470;DHT22;65305;52.870;13.660;2023-03-01T14:41:21;6.50;48.80
76470;DHT22;65305;52.870;13.660;2023-03-01T14:46:19;6.50;48.90
76470;DHT22;65305;52.870;13.660;2023-03-01T14:48:48;6.50;48.90
76470;DHT22;65305;52.870;13.660;2023-03-01T14:51:15;6.50;48.90
76470;DHT22;65305;52.870;13.660;2023-03-01T14:53:42;6.50;48.90
76470;DHT22;65305;52.870;13.660;2023-03-01T14:56:12;6.40;49.00
76470;DHT22;65305;52.870;13.660;2023-03-01T14:58:39;6.40;48.90
76470;DHT22;65305;52.870;13.660;2023-03-01T15:01:05;6.40;49.00
76470;DHT22;65305;52.870;13.660;2023-03-01T15:03:35;6.40;49.00
76470;DHT22;65305;52.870;13.660;2023-03-01T15:06:03;6.40;49.10
76470;DHT22;65305;52.870;13.660;2023-03-01T15:08:29;6.40;49.10
76470;DHT22;65305;52.870;13.660;2023-03-01T15:11:05;6.40;49.10
76470;DHT22;65305;52.870;13.660;2023-03-01T15:13:32;6.40;49.10
76470;DHT22;65305;52.870;13.660;2023-03-01T15:18:34;6.40;49.20
76470;DHT22;65305;52.870;13.660;2023-03-01T15:21:06;6.30;49.20
76470;DHT22;65305;52.870;13.660;2023-03-01T15:23:32;6.30;49.30
76470;DHT22;65305;52.870;13.660;2023-03-01T15:25:59;6.30;49.30
76470;DHT22;65305;52.870;13.660;2023-03-01T15:28:30;6.30;49.40
76470;DHT22;65305;52.870;13.660;2023-03-01T15:30:58;6.30;49.40
76470;DHT22;65305;52.870;13.660;2023-03-01T15:33:28;6.30;49.40
76470;DHT22;65305;52.870;13.660;2023-03-01T15:35:56;6.30;49.50
76470;DHT22;65305;52.870;13.660;2023-03-01T15:38:33;6.30;49.50
76470;DHT22;65305;52.870;13.660;2023-03-01T15:41:02;6.30;49.50
76470;DHT22;65305;52.870;13.660;2023-03-01T15:43:40;6.30;49.60
76470;DHT22;65305;52.870;13.660;2023-03-01T15:46:23;6.30;49.60
76470;DHT22;65305;52.870;13.660;2023-03-01T15:48:56;6.20;49.70
76470;DHT22;65305;52.870;13.660;2023-03-01T15:51:41;6.30;49.70
76470;DHT22;65305;52.870;13.660;2023-03-01T15:54:19;6.20;49.70
76470;DHT22;65305;52.870;13.660;2023-03-01T15:56:46;6.20;49.80
76470;DHT22;65305;52.870;13.660;2023-03-01T15:59:13;6.20;49.90
76470;DHT22;65305;52.870;13.660;2023-03-01T16:01:40;6.20;49.80
76470;DHT22;65305;52.870;13.660;2023-03-01T16:04:08;6.20;49.90
76470;DHT22;65305;52.870;13.660;2023-03-01T16:06:35;6.20;49.90
76470;DHT22;65305;52.870;13.660;2023-03-01T16:09:01;6.20;50.00
76470;DHT22;65305;52.870;13.660;2023-03-01T16:11:28;6.20;50.00
76470;DHT22;65305;52.870;13.660;2023-03-01T16:13:55;6.20;50.00
76470;DHT22;65305;52.870;13.660;2023-03-01T16:16:21;6.20;50.00
76470;DHT22;65305;52.870;13.660;2023-03-01T16:18:48;6.20;50.10
76470;DHT22;65305;52.870;13.660;2023-03-01T16:21:24;6.20;50.20
76470;DHT22;65305;52.870;13.660;2023-03-01T16:23:51;6.10;50.20
76470;DHT22;65305;52.870;13.660;2023-03-01T16:26:18;6.10;50.20
76470;DHT22;65305;52.870;13.660;2023-03-01T16:28:44;6.10;50.30
76470;DHT22;65305;52.870;13.660;2023-03-01T16:31:11;6.10;50.30
76470;DHT22;65305;52.870;13.660;2023-03-01T16:33:41;6.10;50.30
76470;DHT22;65305;52.870;13.660;2023-03-01T16:36:11;6.10;50.30
76470;DHT22;65305;52.870;13.660;2023-03-01T16:38:37;6.10;50.30
76470;DHT22;65305;52.870;13.660;2023-03-01T16:41:04;6.10;50.50
76470;DHT22;65305;52.870;13.660;2023-03-01T16:43:31;6.10;50.40
76470;DHT22;65305;52.870;13.660;2023-03-01T16:45:58;6.10;50.50
76470;DHT22;65305;52.870;13.660;2023-03-01T16:48:25;6.10;50.50
76470;DHT22;65305;52.870;13.660;2023-03-01T16:51:00;6.00;50.60
76470;DHT22;65305;52.870;13.660;2023-03-01T16:53:26;6.00;50.60
76470;DHT22;65305;52.870;13.660;2023-03-01T16:55:59;6.00;50.70
76470;DHT22;65305;52.870;13.660;2023-03-01T16:58:25;6.00;50.70